Time;durP1;ratioP1;P1;durP2;ratioP2;P2;SDS_P1;SDS_P2;PMS_P1;PMS_P2;Temp;Humidity;BMP_temperature;BMP_pressure;BME280_temperature;BME280_humidity;BME280_pressure;Samples;Min_cycle;Max_cycle;Signal;HPM_P1;HPM_P2
2023/07/30 00:02:09;;;;;;;2.10;1.58;;;20.20;99.90;;;;;;5054270;28;20210;-60
2023/07/30 00:04:36;;;;;;;1.83;1.42;;;20.20;99.90;;;;;;5054094;28;20213;-60
2023/07/30 00:07:03;;;;;;;1.38;1.10;;;20.10;99.90;;;;;;5053811;28;20221;-60
2023/07/30 00:09:31;;;;;;;2.00;1.40;;;20.10;99.90;;;;;;5054268;28;20254;-59
2023/07/30 00:11:57;;;;;;;1.50;1.30;;;20.10;99.90;;;;;;5054129;28;20206;-59
2023/07/30 00:14:24;;;;;;;2.17;1.27;;;20.10;99.90;;;;;;5054216;28;20589;-60
2023/07/30 00:16:51;;;;;;;2.33;1.33;;;20.00;99.90;;;;;;5053545;28;20232;-59
2023/07/30 00:19:18;;;;;;;2.42;1.10;;;20.00;99.90;;;;;;5053615;28;20591;-59
2023/07/30 00:21:46;;;;;;;1.20;1.08;;;20.00;99.90;;;;;;5053831;28;20481;-60
2023/07/30 00:24:13;;;;;;;2.00;1.27;;;20.00;99.90;;;;;;5053819;28;20216;-60
2023/07/30 00:26:41;;;;;;;1.95;1.70;;;20.00;99.90;;;;;;5053218;28;20669;-60
2023/07/30 00:29:08;;;;;;;1.48;1.30;;;20.00;99.90;;;;;;5053638;28;20220;-60
2023/07/30 00:31:34;;;;;;;1.50;1.15;;;20.00;99.90;;;;;;5085108;22;20236;-58
2023/07/30 00:34:01;;;;;;;1.27;1.08;;;19.90;99.90;;;;;;5069635;28;20258;-57
2023/07/30 00:36:28;;;;;;;1.55;1.00;;;20.00;99.90;;;;;;5073893;28;20243;-57
2023/07/30 00:38:54;;;;;;;1.10;0.95;;;19.90;99.90;;;;;;5073998;28;20211;-56
2023/07/30 00:41:21;;;;;;;1.30;0.98;;;19.90;99.90;;;;;;5073782;28;20229;-58
2023/07/30 00:43:49;;;;;;;1.35;1.05;;;20.00;99.90;;;;;;5073841;28;20208;-56
2023/07/30 00:46:16;;;;;;;1.20;0.77;;;19.90;99.90;;;;;;5073395;28;20231;-57
2023/07/30 00:48:43;;;;;;;0.75;0.70;;;19.90;99.90;;;;;;5073931;28;20212;-56
2023/07/30 00:51:12;;;;;;;1.30;0.88;;;19.90;99.90;;;;;;5073962;28;20231;-57
2023/07/30 00:53:39;;;;;;;1.02;0.82;;;19.90;99.90;;;;;;5074805;28;20216;-58
2023/07/30 00:56:05;;;;;;;0.70;0.70;;;19.80;99.90;;;;;;5073776;28;20228;-56
2023/07/30 00:58:33;;;;;;;0.98;0.85;;;19.80;99.90;;;;;;5073571;28;20306;-56
2023/07/30 01:01:01;;;;;;;0.63;0.63;;;19.80;99.90;;;;;;5073346;28;20229;-57
2023/07/30 01:03:28;;;;;;;2.60;0.80;;;19.70;99.90;;;;;;5073212;28;20551;-58
2023/07/30 01:05:55;;;;;;;1.38;1.02;;;19.70;99.90;;;;;;5073029;28;20228;-57
2023/07/30 01:08:22;;;;;;;1.00;0.90;;;19.60;99.90;;;;;;5073362;28;20212;-57
2023/07/30 01:10:50;;;;;;;1.27;0.77;;;19.50;99.90;;;;;;5073194;28;20231;-57
2023/07/30 01:13:17;;;;;;;3.03;1.10;;;19.60;99.90;;;;;;5073034;28;20660;-58
2023/07/30 01:15:44;;;;;;;0.90;0.80;;;19.70;99.90;;;;;;5072768;28;20228;-56
2023/07/30 01:18:12;;;;;;;0.70;0.70;;;19.80;99.90;;;;;;5073324;28;20209;-57
2023/07/30 01:20:39;;;;;;;2.05;1.02;;;19.80;99.90;;;;;;5072836;28;20290;-57
2023/07/30 01:23:07;;;;;;;2.92;0.80;;;19.90;99.90;;;;;;5072862;28;20559;-56
2023/07/30 01:25:37;;;;;;;1.55;0.88;;;20.00;99.90;;;;;;5072691;28;20197;-57
2023/07/30 01:28:06;;;;;;;1.60;1.50;;;20.00;99.90;;;;;;5072586;28;20209;-58
2023/07/30 01:30:38;;;;;;;1.95;1.20;;;20.10;99.90;;;;;;5072720;28;20323;-57
2023/07/30 01:33:05;;;;;;;2.75;0.88;;;20.10;99.90;;;;;;5072067;28;20245;-57
2023/07/30 01:35:33;;;;;;;1.23;1.10;;;20.10;99.90;;;;;;5072574;28;20221;-56
2023/07/30 01:38:02;;;;;;;1.10;0.90;;;20.20;99.90;;;;;;5072554;28;20209;-59
2023/07/30 01:40:30;;;;;;;1.83;1.00;;;20.20;99.90;;;;;;5072742;28;20380;-59
2023/07/30 01:42:57;;;;;;;6.75;1.40;;;20.20;99.90;;;;;;5072661;28;20288;-59
2023/07/30 01:45:23;;;;;;;3.05;1.02;;;20.20;99.90;;;;;;5072670;28;20262;-59
2023/07/30 01:47:50;;;;;;;1.50;1.27;;;20.30;99.90;;;;;;5072301;28;20558;-59
2023/07/30 01:50:17;;;;;;;2.47;2.28;;;20.20;99.90;;;;;;5072250;28;20232;-59
2023/07/30 01:52:44;;;;;;;2.35;1.00;;;20.20;99.90;;;;;;5072448;28;20220;-60
2023/07/30 01:55:11;;;;;;;3.17;2.00;;;20.10;99.90;;;;;;5072360;28;20215;-57
2023/07/30 01:57:39;;;;;;;3.25;2.08;;;20.00;99.90;;;;;;5072564;28;20231;-59
2023/07/30 02:00:07;;;;;;;2.17;1.45;;;20.00;99.90;;;;;;5072533;28;20221;-59
2023/07/30 02:02:35;;;;;;;1.95;1.23;;;19.90;99.90;;;;;;5072146;28;20584;-59
2023/07/30 02:05:02;;;;;;;3.13;1.35;;;19.90;99.90;;;;;;5072273;28;20227;-59
2023/07/30 02:07:28;;;;;;;3.00;1.40;;;19.90;99.90;;;;;;5072088;28;20196;-60
2023/07/30 02:09:55;;;;;;;3.72;0.95;;;20.00;99.90;;;;;;5071874;28;20282;-60
2023/07/30 02:12:22;;;;;;;1.45;1.20;;;19.90;99.90;;;;;;5071976;28;20209;-60
2023/07/30 02:14:50;;;;;;;2.15;0.88;;;19.90;99.90;;;;;;5072163;28;20211;-60
2023/07/30 02:17:17;;;;;;;2.40;0.80;;;19.90;99.90;;;;;;5071496;28;20259;-59
2023/07/30 02:19:43;;;;;;;1.60;1.02;;;19.70;99.90;;;;;;5071734;28;20228;-59
2023/07/30 02:22:10;;;;;;;3.22;1.10;;;19.60;99.90;;;;;;5071800;28;20255;-59
2023/07/30 02:24:37;;;;;;;2.08;0.85;;;19.50;99.90;;;;;;5072135;28;20200;-59
2023/07/30 02:27:04;;;;;;;1.77;0.90;;;19.50;99.90;;;;;;5071657;28;20201;-59
2023/07/30 02:29:31;;;;;;;1.10;0.80;;;19.50;99.90;;;;;;5071650;28;20209;-58
2023/07/30 02:31:59;;;;;;;1.33;0.70;;;19.50;99.90;;;;;;5071714;28;20205;-59
2023/07/30 02:34:26;;;;;;;2.58;1.00;;;19.50;99.90;;;;;;5071892;28;20239;-59
2023/07/30 02:36:53;;;;;;;5.97;1.10;;;19.50;99.90;;;;;;5071165;28;20216;-59
2023/07/30 02:39:20;;;;;;;1.80;0.95;;;19.40;99.90;;;;;;5071659;28;20557;-59
2023/07/30 02:41:47;;;;;;;1.60;1.10;;;19.40;99.90;;;;;;5071488;28;20728;-59
2023/07/30 02:44:13;;;;;;;1.85;1.02;;;19.10;99.90;;;;;;5071518;28;20669;-59
2023/07/30 02:46:40;;;;;;;1.83;0.70;;;19.10;99.90;;;;;;5071348;28;20360;-59
2023/07/30 02:49:08;;;;;;;1.38;1.17;;;19.00;99.90;;;;;;5071239;28;20668;-59
2023/07/30 02:51:35;;;;;;;2.45;1.00;;;18.90;99.90;;;;;;5071622;28;20253;-59
2023/07/30 02:54:06;;;;;;;1.30;1.20;;;18.90;99.90;;;;;;5071558;28;20204;-59
2023/07/30 02:56:33;;;;;;;1.92;1.05;;;18.90;99.90;;;;;;5071211;28;20263;-59
2023/07/30 02:59:00;;;;;;;3.00;1.50;;;18.90;99.90;;;;;;5071816;28;20204;-59
2023/07/30 03:01:27;;;;;;;1.60;1.33;;;18.80;99.90;;;;;;5071171;28;20224;-58
2023/07/30 03:03:53;;;;;;;1.65;1.10;;;18.90;99.90;;;;;;5071195;28;20700;-59
2023/07/30 03:06:21;;;;;;;1.63;1.02;;;19.00;99.90;;;;;;5070975;28;20208;-59
2023/07/30 03:08:48;;;;;;;1.80;1.20;;;19.10;99.90;;;;;;5071212;28;20209;-59
2023/07/30 03:11:15;;;;;;;1.42;1.25;;;19.20;99.90;;;;;;5071149;28;20233;-59
2023/07/30 03:13:41;;;;;;;4.63;1.15;;;19.20;99.90;;;;;;5071220;28;20687;-59
2023/07/30 03:16:08;;;;;;;1.35;1.15;;;19.30;99.90;;;;;;5070572;28;20592;-58
2023/07/30 03:18:35;;;;;;;2.47;1.40;;;19.30;99.90;;;;;;5071117;28;20590;-59
2023/07/30 03:21:02;;;;;;;3.75;1.50;;;19.30;99.90;;;;;;5071153;28;20225;-59
2023/07/30 03:23:31;;;;;;;2.20;1.55;;;19.30;99.90;;;;;;5071209;28;20205;-59
2023/07/30 03:25:59;;;;;;;3.05;2.03;;;19.30;99.90;;;;;;5070839;28;20676;-59
2023/07/30 03:28:26;;;;;;;2.97;2.13;;;19.40;99.90;;;;;;5071195;28;20224;-59
2023/07/30 03:30:53;;;;;;;2.95;1.65;;;19.40;99.90;;;;;;5070819;28;20251;-59
2023/07/30 03:33:19;;;;;;;1.95;1.30;;;19.40;99.90;;;;;;5071289;28;20209;-59
2023/07/30 03:35:46;;;;;;;4.30;1.30;;;19.50;99.90;;;;;;5071113;28;20211;-59
2023/07/30 03:38:13;;;;;;;3.63;1.42;;;19.60;99.90;;;;;;5071005;28;20677;-59
2023/07/30 03:40:41;;;;;;;1.85;1.40;;;19.60;99.90;;;;;;5070869;28;20591;-59
2023/07/30 03:43:07;;;;;;;3.38;1.27;;;19.60;99.90;;;;;;5070908;28;20275;-59
2023/07/30 03:45:34;;;;;;;3.83;1.45;;;19.50;99.90;;;;;;5070832;28;20224;-59
2023/07/30 03:48:01;;;;;;;4.13;1.50;;;19.40;99.90;;;;;;5070987;28;20208;-59
2023/07/30 03:50:27;;;;;;;1.73;1.50;;;19.40;99.90;;;;;;5070816;28;20236;-61
2023/07/30 03:52:54;;;;;;;1.92;1.65;;;19.50;99.90;;;;;;5071066;28;20201;-61
2023/07/30 03:55:21;;;;;;;1.65;1.40;;;19.50;99.90;;;;;;5070771;28;20205;-58
2023/07/30 03:57:49;;;;;;;2.33;1.77;;;19.50;99.90;;;;;;5073783;28;20236;-59
2023/07/30 04:00:16;;;;;;;1.58;1.40;;;19.50;99.90;;;;;;5074332;28;20252;-59
2023/07/30 04:02:43;;;;;;;2.75;2.08;;;19.50;99.90;;;;;;5074436;28;20228;-58
2023/07/30 04:05:09;;;;;;;5.07;3.13;;;19.60;99.90;;;;;;5074373;28;20228;-59
2023/07/30 04:07:36;;;;;;;2.58;1.80;;;19.50;99.90;;;;;;5074070;28;20209;-59
2023/07/30 04:10:03;;;;;;;2.00;1.80;;;19.60;99.90;;;;;;5074254;28;20311;-59
2023/07/30 04:12:29;;;;;;;1.70;1.58;;;19.50;99.90;;;;;;5074119;28;20576;-59
2023/07/30 04:14:57;;;;;;;1.67;1.58;;;19.60;99.90;;;;;;5074165;28;20700;-60
2023/07/30 04:17:24;;;;;;;2.97;1.30;;;19.60;99.90;;;;;;5074044;28;20228;-60
2023/07/30 04:19:51;;;;;;;1.98;1.50;;;19.70;99.90;;;;;;5074068;28;20232;-60
2023/07/30 04:22:17;;;;;;;3.95;1.40;;;19.80;99.90;;;;;;5074099;28;20208;-60
2023/07/30 04:24:44;;;;;;;2.45;1.60;;;19.80;99.90;;;;;;5074186;28;20220;-60
2023/07/30 04:27:11;;;;;;;1.88;1.35;;;19.90;99.90;;;;;;5073666;28;20598;-59
2023/07/30 04:29:38;;;;;;;1.45;1.25;;;20.00;99.90;;;;;;5073881;28;20201;-60
2023/07/30 04:32:07;;;;;;;1.88;1.70;;;20.00;99.90;;;;;;5074057;28;20205;-59
2023/07/30 04:34:34;;;;;;;4.65;1.70;;;20.10;99.90;;;;;;5073899;28;20208;-60
2023/07/30 04:37:01;;;;;;;2.72;1.70;;;20.10;99.90;;;;;;5073552;28;20601;-59
2023/07/30 04:39:28;;;;;;;3.28;1.90;;;20.20;99.90;;;;;;5074072;28;20254;-61
2023/07/30 04:41:55;;;;;;;2.85;1.60;;;20.20;99.90;;;;;;5073586;28;20208;-58
2023/07/30 04:44:21;;;;;;;2.95;1.58;;;20.20;99.90;;;;;;5073705;28;20205;-59
2023/07/30 04:46:48;;;;;;;2.72;1.60;;;20.30;99.90;;;;;;5073365;28;20216;-60
2023/07/30 04:49:16;;;;;;;3.63;1.98;;;20.40;99.90;;;;;;5073478;28;20212;-60
2023/07/30 04:51:43;;;;;;;3.28;2.17;;;20.50;99.90;;;;;;5073792;28;20230;-60
2023/07/30 04:54:10;;;;;;;3.75;2.20;;;20.60;99.90;;;;;;5073396;28;20205;-59
2023/07/30 04:56:37;;;;;;;4.10;2.40;;;20.60;99.90;;;;;;5073019;28;20233;-59
2023/07/30 04:59:03;;;;;;;2.30;2.10;;;20.60;99.90;;;;;;5073357;28;20209;-59
2023/07/30 05:01:31;;;;;;;6.40;1.95;;;20.60;99.90;;;;;;5073412;28;20228;-58
2023/07/30 05:03:58;;;;;;;4.13;2.08;;;20.60;99.90;;;;;;5073305;28;20212;-59
2023/07/30 05:06:26;;;;;;;2.25;2.00;;;20.60;99.90;;;;;;5072996;28;20211;-57
2023/07/30 05:08:53;;;;;;;4.97;2.40;;;20.60;99.90;;;;;;5072003;28;20212;-60
2023/07/30 05:11:19;;;;;;;3.97;2.50;;;20.70;99.90;;;;;;5073259;28;20232;-59
2023/07/30 05:13:46;;;;;;;4.53;3.78;;;20.70;99.90;;;;;;5073155;28;20618;-59
2023/07/30 05:16:13;;;;;;;3.10;2.60;;;20.70;99.90;;;;;;5073015;28;20212;-59
2023/07/30 05:18:39;;;;;;;2.97;1.90;;;20.90;99.90;;;;;;5072991;28;20707;-59
2023/07/30 05:21:06;;;;;;;2.88;2.30;;;20.90;99.90;;;;;;5072981;28;20229;-58
2023/07/30 05:23:34;;;;;;;2.88;1.73;;;21.00;99.90;;;;;;5072762;28;20213;-60
2023/07/30 05:26:01;;;;;;;3.30;2.20;;;21.00;99.90;;;;;;5072941;28;20205;-59
2023/07/30 05:28:27;;;;;;;2.58;1.80;;;21.10;99.90;;;;;;5073094;28;20208;-60
2023/07/30 05:30:54;;;;;;;3.20;2.38;;;21.10;99.90;;;;;;5072601;28;20244;-58
2023/07/30 05:33:21;;;;;;;2.30;2.00;;;21.00;99.90;;;;;;5072558;28;20204;-59
2023/07/30 05:35:48;;;;;;;2.22;2.03;;;21.10;99.90;;;;;;5072501;28;20249;-59
2023/07/30 05:38:14;;;;;;;5.43;2.65;;;21.10;99.90;;;;;;5072567;28;20272;-58
2023/07/30 05:40:43;;;;;;;5.55;2.03;;;21.00;99.90;;;;;;5072796;28;20229;-60
2023/07/30 05:43:09;;;;;;;3.08;2.08;;;21.00;99.90;;;;;;5072670;28;20201;-58
2023/07/30 05:45:36;;;;;;;3.70;2.08;;;21.00;99.90;;;;;;5072528;28;20258;-59
2023/07/30 05:48:03;;;;;;;3.92;2.25;;;20.90;99.90;;;;;;5072270;28;20213;-59
2023/07/30 05:50:30;;;;;;;4.25;2.75;;;20.80;99.90;;;;;;5072114;28;20736;-60
2023/07/30 05:52:56;;;;;;;4.25;2.25;;;20.80;99.90;;;;;;5072367;28;20295;-59
2023/07/30 05:55:23;;;;;;;1.90;1.70;;;20.90;99.90;;;;;;5072261;28;20209;-59
2023/07/30 05:57:53;;;;;;;3.45;2.42;;;20.90;99.90;;;;;;5071722;28;20704;-60
2023/07/30 06:00:20;;;;;;;2.95;1.90;;;21.00;99.90;;;;;;5072088;28;20263;-61
2023/07/30 06:02:47;;;;;;;2.60;1.92;;;21.10;99.90;;;;;;5072161;28;20262;-59
2023/07/30 06:05:14;;;;;;;1.52;1.40;;;21.20;99.90;;;;;;5072116;28;20212;-59
2023/07/30 06:07:40;;;;;;;1.30;1.20;;;21.20;99.90;;;;;;5071872;28;20271;-59
2023/07/30 06:10:08;;;;;;;4.05;3.17;;;21.20;99.90;;;;;;5072071;28;20251;-59
2023/07/30 06:12:34;;;;;;;1.73;1.30;;;21.20;99.90;;;;;;5072036;28;20211;-59
2023/07/30 06:15:02;;;;;;;2.97;1.95;;;21.30;99.90;;;;;;5072057;28;20204;-58
2023/07/30 06:17:29;;;;;;;3.97;2.03;;;21.30;99.90;;;;;;5071396;28;20220;-59
2023/07/30 06:19:56;;;;;;;2.60;1.55;;;21.40;99.90;;;;;;5071369;28;20235;-60
2023/07/30 06:22:23;;;;;;;3.47;2.17;;;21.40;99.90;;;;;;5071994;28;20216;-59
2023/07/30 06:24:49;;;;;;;2.80;2.00;;;21.60;99.90;;;;;;5071902;28;20514;-59
2023/07/30 06:27:16;;;;;;;3.00;1.77;;;21.90;99.90;;;;;;5071571;28;20203;-57
2023/07/30 06:32:10;;;;;;;2.50;1.70;;;22.20;99.90;;;;;;5068705;22;20237;-59
2023/07/30 06:34:37;;;;;;;1.50;1.40;;;22.40;99.90;;;;;;5051695;28;20216;-59
2023/07/30 06:37:04;;;;;;;1.90;1.40;;;22.60;99.90;;;;;;5051280;28;20263;-60
2023/07/30 06:39:31;;;;;;;1.58;1.48;;;22.90;99.90;;;;;;5052326;28;20681;-60
2023/07/30 06:41:57;;;;;;;1.48;1.35;;;23.10;99.90;;;;;;5051958;28;20236;-60
2023/07/30 06:44:25;;;;;;;1.30;1.20;;;23.10;99.90;;;;;;5051466;28;20212;-60
2023/07/30 06:46:52;;;;;;;1.55;1.35;;;23.30;99.90;;;;;;5051039;28;20209;-60
2023/07/30 06:49:20;;;;;;;1.25;1.05;;;23.60;99.90;;;;;;5051628;28;20210;-60
2023/07/30 06:51:47;;;;;;;3.70;2.47;;;23.90;99.90;;;;;;5051311;28;20286;-60
2023/07/30 06:54:14;;;;;;;1.85;1.50;;;24.00;99.90;;;;;;5051379;28;20205;-60
2023/07/30 06:56:40;;;;;;;4.55;2.75;;;24.90;99.90;;;;;;5050936;28;20213;-60
2023/07/30 06:59:07;;;;;;;2.38;1.60;;;26.50;99.90;;;;;;5051157;28;20332;-61
2023/07/30 07:01:33;;;;;;;2.45;1.45;;;27.60;99.90;;;;;;5051209;28;20233;-59
2023/07/30 07:04:00;;;;;;;1.08;0.90;;;29.10;99.90;;;;;;5051382;28;20254;-60
2023/07/30 07:06:28;;;;;;;2.50;1.17;;;30.40;99.90;;;;;;5050913;28;20320;-60
2023/07/30 07:08:55;;;;;;;5.40;4.40;;;30.90;99.90;;;;;;5051093;28;20209;-61
2023/07/30 07:11:22;;;;;;;2.42;2.22;;;30.90;99.90;;;;;;5051056;28;20233;-61
2023/07/30 07:13:48;;;;;;;1.83;1.20;;;30.80;99.90;;;;;;5050828;28;20677;-62
2023/07/30 07:16:15;;;;;;;1.17;0.82;;;30.80;99.90;;;;;;5050807;28;20632;-61
2023/07/30 07:18:42;;;;;;;1.17;0.88;;;30.50;99.90;;;;;;5051140;28;20230;-60
2023/07/30 07:21:08;;;;;;;1.88;1.20;;;29.80;99.90;;;;;;5051031;28;20226;-61
2023/07/30 07:23:36;;;;;;;1.27;1.05;;;29.10;99.90;;;;;;5051111;28;20248;-60
2023/07/30 07:26:03;;;;;;;3.42;1.30;;;28.50;99.90;;;;;;5050680;28;20695;-61
2023/07/30 07:28:30;;;;;;;1.40;1.30;;;27.90;99.90;;;;;;5050713;28;20205;-61
2023/07/30 07:30:57;;;;;;;3.08;1.35;;;27.40;99.90;;;;;;5051665;28;20241;-62
2023/07/30 07:33:23;;;;;;;1.45;0.95;;;26.80;99.90;;;;;;5055211;28;20582;-64
2023/07/30 07:35:50;;;;;;;1.67;1.45;;;26.10;99.90;;;;;;5054505;28;20212;-63
2023/07/30 07:38:17;;;;;;;4.10;3.60;;;25.70;99.90;;;;;;5054594;28;20234;-62
2023/07/30 07:40:45;;;;;;;5.03;3.47;;;25.40;99.90;;;;;;5054724;28;20225;-63
2023/07/30 07:43:12;;;;;;;3.72;2.83;;;25.00;99.90;;;;;;5054508;28;20742;-62
2023/07/30 07:45:38;;;;;;;2.08;1.75;;;24.80;99.90;;;;;;5054508;28;20205;-62
2023/07/30 07:48:05;;;;;;;1.85;1.75;;;24.60;99.90;;;;;;5054369;28;20666;-63
2023/07/30 07:50:32;;;;;;;2.65;1.42;;;24.40;99.90;;;;;;5054562;28;20259;-64
2023/07/30 07:52:59;;;;;;;1.75;1.60;;;24.30;99.90;;;;;;5054537;28;20216;-63
2023/07/30 07:55:25;;;;;;;2.25;1.75;;;24.20;99.90;;;;;;5054418;28;20228;-60
2023/07/30 07:57:53;;;;;;;3.05;1.60;;;24.10;99.90;;;;;;5054398;28;20221;-61
2023/07/30 08:00:20;;;;;;;7.03;2.38;;;24.00;99.90;;;;;;5054335;28;20221;-59
2023/07/30 08:02:47;;;;;;;1.70;1.60;;;23.70;99.90;;;;;;5054401;28;20256;-60
2023/07/30 08:05:14;;;;;;;2.92;1.80;;;23.50;99.90;;;;;;5054471;28;20412;-59
2023/07/30 08:07:41;;;;;;;5.82;1.50;;;23.10;99.90;;;;;;5053796;28;20237;-58
2023/07/30 08:10:08;;;;;;;1.85;1.40;;;22.60;99.90;;;;;;5054107;28;20274;-59
2023/07/30 08:12:35;;;;;;;2.85;1.58;;;22.30;99.90;;;;;;5054216;28;20301;-58
2023/07/30 08:15:04;;;;;;;1.15;1.05;;;22.20;99.90;;;;;;5053899;28;20202;-59
2023/07/30 08:17:30;;;;;;;1.63;1.25;;;22.10;99.90;;;;;;5053493;28;20206;-59
2023/07/30 08:19:57;;;;;;;1.20;1.10;;;22.10;99.90;;;;;;5053588;28;20720;-59
2023/07/30 08:22:24;;;;;;;1.42;1.30;;;22.40;99.90;;;;;;5053915;28;20210;-59
2023/07/30 08:24:51;;;;;;;2.13;1.35;;;22.90;99.90;;;;;;5053790;28;20206;-59
2023/07/30 08:27:17;;;;;;;2.95;1.38;;;23.20;99.90;;;;;;5053774;28;20210;-59
2023/07/30 08:29:45;;;;;;;6.43;4.88;;;23.50;99.90;;;;;;5053690;28;20205;-59
2023/07/30 08:32:13;;;;;;;1.92;1.52;;;23.80;99.90;;;;;;5053676;28;20221;-59
2023/07/30 08:34:39;;;;;;;1.85;1.63;;;24.20;99.90;;;;;;5053592;28;20209;-59
2023/07/30 08:37:06;;;;;;;1.77;1.20;;;24.50;99.90;;;;;;5053467;28;20209;-59
2023/07/30 08:39:33;;;;;;;1.67;1.20;;;24.70;99.90;;;;;;5053822;28;20240;-59
2023/07/30 08:41:59;;;;;;;2.67;1.23;;;24.70;99.90;;;;;;5053541;28;20236;-59
2023/07/30 08:44:26;;;;;;;1.40;1.10;;;24.80;99.90;;;;;;5053922;28;20209;-58
2023/07/30 08:46:53;;;;;;;1.35;1.25;;;25.00;99.90;;;;;;5053374;28;20202;-58
2023/07/30 08:49:21;;;;;;;1.23;1.00;;;25.40;99.90;;;;;;5053427;28;20275;-58
2023/07/30 08:51:52;;;;;;;1.77;1.40;;;25.90;99.90;;;;;;5053208;28;20376;-60
2023/07/30 08:54:21;;;;;;;1.27;1.17;;;26.20;99.90;;;;;;5053127;28;20683;-59
2023/07/30 08:56:49;;;;;;;1.70;1.20;;;26.30;99.90;;;;;;5053204;28;20216;-59
2023/07/30 08:59:17;;;;;;;3.08;1.33;;;26.30;99.90;;;;;;5053228;28;20701;-58
2023/07/30 09:01:45;;;;;;;2.97;1.20;;;26.30;99.90;;;;;;5053012;28;20226;-58
2023/07/30 09:04:12;;;;;;;1.95;1.20;;;25.90;99.90;;;;;;5053079;28;20201;-59
2023/07/30 09:06:41;;;;;;;4.50;1.55;;;25.90;99.90;;;;;;5052840;28;20708;-59
2023/07/30 09:09:10;;;;;;;1.30;1.20;;;26.00;99.90;;;;;;5053368;28;20201;-59
2023/07/30 09:11:37;;;;;;;2.47;1.30;;;26.20;99.90;;;;;;5053232;28;20226;-59
2023/07/30 09:14:04;;;;;;;1.65;1.30;;;26.20;99.90;;;;;;5052868;28;20205;-59
2023/07/30 09:16:31;;;;;;;4.90;1.40;;;26.20;99.90;;;;;;5052401;28;20205;-59
2023/07/30 09:18:57;;;;;;;1.63;1.23;;;26.40;99.90;;;;;;5052633;28;20217;-58
2023/07/30 09:21:31;;;;;;;3.03;1.40;;;26.60;99.90;;;;;;5052974;28;20261;-58
2023/07/30 09:24:05;;;;;;;2.08;1.88;;;26.70;99.90;;;;;;5052821;28;20233;-58
2023/07/30 09:26:40;;;;;;;3.30;1.75;;;26.90;99.90;;;;;;5052449;28;20201;-58
2023/07/30 09:29:08;;;;;;;1.98;1.67;;;26.90;99.90;;;;;;5052555;28;20205;-59
2023/07/30 09:31:46;;;;;;;2.15;1.40;;;26.70;99.90;;;;;;5052279;28;20233;-59
2023/07/30 09:34:16;;;;;;;2.13;1.88;;;26.30;99.90;;;;;;5052879;28;20201;-58
2023/07/30 09:36:44;;;;;;;1.77;1.35;;;26.10;99.90;;;;;;5052154;28;20673;-59
2023/07/30 09:39:18;;;;;;;2.00;1.50;;;26.10;99.90;;;;;;5052320;28;20639;-59
2023/07/30 09:41:45;;;;;;;1.90;1.63;;;26.30;99.90;;;;;;5052151;28;20237;-58
2023/07/30 09:44:12;;;;;;;2.72;2.08;;;26.40;99.90;;;;;;5052240;28;20263;-58
2023/07/30 09:46:43;;;;;;;1.58;1.17;;;26.70;99.90;;;;;;5052351;28;20212;-59
2023/07/30 09:49:10;;;;;;;3.28;1.70;;;26.70;99.90;;;;;;5052688;28;20205;-58
2023/07/30 09:51:38;;;;;;;2.17;1.42;;;26.60;99.90;;;;;;5052091;28;20706;-58
2023/07/30 09:54:06;;;;;;;1.60;1.15;;;26.60;99.90;;;;;;5051729;28;20209;-58
2023/07/30 09:56:34;;;;;;;1.65;1.45;;;26.80;99.90;;;;;;5051612;28;20209;-58
2023/07/30 09:59:01;;;;;;;2.10;1.45;;;26.80;99.90;;;;;;5052197;28;20272;-58
2023/07/30 10:01:30;;;;;;;3.42;2.72;;;26.80;99.90;;;;;;5052323;28;20236;-59
2023/07/30 10:03:58;;;;;;;3.90;1.50;;;27.10;99.90;;;;;;5052133;28;20210;-59
2023/07/30 10:06:27;;;;;;;7.70;4.70;;;27.30;99.90;;;;;;5051770;28;20209;-59
2023/07/30 10:09:00;;;;;;;1.30;1.20;;;27.10;99.90;;;;;;5052077;28;20669;-59
2023/07/30 10:11:28;;;;;;;2.40;1.48;;;27.00;99.90;;;;;;5051969;28;20229;-59
2023/07/30 10:13:57;;;;;;;1.88;1.55;;;26.70;99.90;;;;;;5052463;28;20213;-59
2023/07/30 10:16:27;;;;;;;2.28;1.80;;;26.50;99.90;;;;;;5051972;28;20201;-58
2023/07/30 10:18:58;;;;;;;2.80;2.08;;;26.30;99.90;;;;;;5052117;28;20222;-58
2023/07/30 10:21:26;;;;;;;6.97;5.60;;;26.00;99.90;;;;;;5051807;28;20225;-59
2023/07/30 10:24:00;;;;;;;2.65;1.70;;;25.70;99.90;;;;;;5051812;28;20665;-59
2023/07/30 10:26:31;;;;;;;5.63;2.85;;;25.80;99.90;;;;;;5051614;28;20209;-59
2023/07/30 10:29:16;;;;;;;1.92;1.70;;;25.90;99.90;;;;;;5051522;28;20661;-59
2023/07/30 10:31:44;;;;;;;2.92;1.40;;;26.00;99.90;;;;;;5051490;28;20233;-58
2023/07/30 10:34:11;;;;;;;2.53;1.90;;;26.30;99.90;;;;;;5051385;28;20214;-58
2023/07/30 10:36:44;;;;;;;2.25;1.65;;;26.40;99.90;;;;;;5051376;28;20202;-58
2023/07/30 10:39:16;;;;;;;2.78;2.05;;;26.80;99.90;;;;;;5051378;28;20229;-58
2023/07/30 10:41:45;;;;;;;1.88;1.50;;;27.00;99.90;;;;;;5051235;28;20770;-58
2023/07/30 10:44:27;;;;;;;2.55;1.73;;;27.00;99.90;;;;;;5051375;28;20212;-59
2023/07/30 10:46:55;;;;;;;5.40;3.33;;;26.80;99.90;;;;;;5051315;28;20201;-58
2023/07/30 10:49:22;;;;;;;5.88;3.40;;;26.90;99.90;;;;;;5051342;28;20197;-57
2023/07/30 10:51:49;;;;;;;3.35;2.35;;;27.00;99.90;;;;;;5051545;28;20225;-58
2023/07/30 10:54:16;;;;;;;2.38;1.83;;;27.10;99.90;;;;;;5051339;28;20206;-58
2023/07/30 10:56:44;;;;;;;3.45;1.67;;;26.90;99.90;;;;;;5050782;28;20210;-59
2023/07/30 10:59:11;;;;;;;4.18;1.60;;;26.60;99.90;;;;;;5050921;28;20230;-59
2023/07/30 11:01:40;;;;;;;2.55;1.42;;;26.50;99.90;;;;;;5051420;28;20229;-58
2023/07/30 11:04:09;;;;;;;2.13;1.73;;;26.30;99.90;;;;;;5051080;28;20764;-58
2023/07/30 11:06:35;;;;;;;2.58;1.55;;;26.30;99.90;;;;;;5052503;28;20673;-58
2023/07/30 11:09:02;;;;;;;2.22;1.77;;;26.30;99.90;;;;;;5055357;28;20646;-59
2023/07/30 11:11:29;;;;;;;2.63;1.60;;;26.40;99.90;;;;;;5055077;28;20229;-59
2023/07/30 11:13:57;;;;;;;4.80;2.35;;;26.40;99.90;;;;;;5055347;28;20315;-58
2023/07/30 11:16:24;;;;;;;3.15;1.52;;;26.40;99.90;;;;;;5055215;28;20205;-59
2023/07/30 11:18:52;;;;;;;2.30;1.40;;;26.40;99.90;;;;;;5055157;28;20229;-59
2023/07/30 11:21:19;;;;;;;2.80;1.20;;;26.60;99.90;;;;;;5054982;28;20230;-59
2023/07/30 11:23:46;;;;;;;1.67;1.50;;;26.60;99.90;;;;;;5055095;28;20274;-59
2023/07/30 11:26:15;;;;;;;3.75;1.85;;;26.80;99.90;;;;;;5055151;28;20216;-58
2023/07/30 11:28:42;;;;;;;8.45;2.58;;;27.00;99.90;;;;;;5055058;28;20723;-60
2023/07/30 11:31:10;;;;;;;2.13;1.60;;;27.20;99.90;;;;;;5054748;28;20641;-59
2023/07/30 11:33:41;;;;;;;3.05;1.73;;;27.20;99.90;;;;;;5054989;28;20205;-59
2023/07/30 11:36:11;;;;;;;3.25;2.00;;;26.90;99.90;;;;;;5054485;28;20290;-59
2023/07/30 11:38:39;;;;;;;2.28;1.50;;;26.30;99.90;;;;;;5054806;28;20205;-58
2023/07/30 11:41:09;;;;;;;2.28;1.50;;;25.80;99.90;;;;;;5054872;28;20225;-59
2023/07/30 11:43:37;;;;;;;4.72;1.70;;;25.40;99.90;;;;;;5054896;28;20248;-59
2023/07/30 11:46:12;;;;;;;2.75;1.40;;;25.00;99.90;;;;;;5054337;28;20201;-58
2023/07/30 11:48:40;;;;;;;2.35;1.50;;;24.60;99.90;;;;;;5054653;28;20209;-60
2023/07/30 11:51:18;;;;;;;2.70;1.58;;;24.60;99.90;;;;;;5054476;28;20317;-59
2023/07/30 11:53:46;;;;;;;2.10;1.45;;;24.80;99.90;;;;;;5055805;28;20205;-60
2023/07/30 11:56:25;;;;;;;4.07;1.52;;;25.00;99.90;;;;;;5055182;28;20212;-58
2023/07/30 11:58:55;;;;;;;5.47;2.17;;;25.30;99.90;;;;;;5055373;28;20251;-58
2023/07/30 12:01:24;;;;;;;3.50;1.52;;;25.60;99.90;;;;;;5055368;28;20240;-59
2023/07/30 12:03:51;;;;;;;2.58;1.52;;;25.80;99.90;;;;;;5055622;28;20216;-59
2023/07/30 12:06:19;;;;;;;3.03;1.52;;;26.10;99.90;;;;;;5054168;28;20209;-60
2023/07/30 12:08:49;;;;;;;3.85;1.50;;;26.30;99.90;;;;;;5054344;28;20688;-58
2023/07/30 12:11:17;;;;;;;3.38;1.58;;;26.40;99.90;;;;;;5054214;28;20229;-58
2023/07/30 12:13:45;;;;;;;3.65;1.60;;;26.20;99.90;;;;;;5054304;28;20206;-59
2023/07/30 12:16:13;;;;;;;4.53;1.58;;;25.90;99.90;;;;;;5053917;28;20232;-59
2023/07/30 12:18:40;;;;;;;3.05;1.55;;;25.70;99.90;;;;;;5053873;28;20215;-59
2023/07/30 12:21:07;;;;;;;1.83;1.40;;;25.60;99.90;;;;;;5053999;28;20276;-59
2023/07/30 12:23:35;;;;;;;2.67;1.45;;;25.50;99.90;;;;;;5053631;28;20215;-58
2023/07/30 12:26:05;;;;;;;1.98;1.50;;;25.30;99.90;;;;;;5053567;28;20217;-58
2023/07/30 12:28:32;;;;;;;2.70;1.83;;;25.20;99.90;;;;;;5053711;28;20237;-58
2023/07/30 12:30:59;;;;;;;3.33;2.10;;;25.30;99.90;;;;;;5078380;22;20723;-59
2023/07/30 12:33:25;;;;;;;3.45;2.00;;;25.40;99.90;;;;;;5054081;28;20209;-60
2023/07/30 12:35:53;;;;;;;4.60;2.25;;;25.40;99.90;;;;;;5054065;28;20213;-59
2023/07/30 12:38:19;;;;;;;4.10;2.10;;;25.60;99.90;;;;;;5053891;28;20669;-59
2023/07/30 12:40:47;;;;;;;3.70;1.67;;;25.80;99.90;;;;;;5053481;28;20225;-58
2023/07/30 12:43:14;;;;;;;2.67;1.40;;;26.00;99.90;;;;;;5053794;28;20220;-58
2023/07/30 12:45:41;;;;;;;2.90;1.30;;;26.30;99.90;;;;;;5053834;28;20216;-59
2023/07/30 12:48:08;;;;;;;2.35;1.40;;;26.50;99.90;;;;;;5053816;28;20228;-59
2023/07/30 12:50:34;;;;;;;3.70;1.50;;;26.50;99.90;;;;;;5053727;28;20593;-58
2023/07/30 12:53:01;;;;;;;2.15;1.45;;;26.20;99.90;;;;;;5053471;28;20236;-58